Time;durP1;ratioP1;P1;durP2;ratioP2;P2;SDS_P1;SDS_P2;PMS_P1;PMS_P2;Temp;Humidity;BMP_temperature;BMP_pressure;BME280_temperature;BME280_humidity;BME280_pressure;Samples;Min_cycle;Max_cycle;Signal;HPM_P1;HPM_P2
2023/07/22 00:01:27;;;;;;;1.50;1.40;;;17.80;99.90;;;;;;5034584;28;20286;-76
2023/07/22 00:03:55;;;;;;;1.75;1.65;;;17.70;99.90;;;;;;5037813;28;20302;-75
2023/07/22 00:06:22;;;;;;;2.85;1.52;;;17.70;99.90;;;;;;5039026;28;20242;-76
2023/07/22 00:08:48;;;;;;;3.55;1.92;;;17.70;99.90;;;;;;5037227;28;20294;-75
2023/07/22 00:11:15;;;;;;;2.20;1.73;;;17.70;99.90;;;;;;5036255;28;20249;-75
2023/07/22 00:13:44;;;;;;;2.10;1.90;;;17.60;99.90;;;;;;5035559;28;20785;-74
2023/07/22 00:16:11;;;;;;;1.75;1.65;;;17.50;99.90;;;;;;5036025;28;20211;-76
2023/07/22 00:18:38;;;;;;;2.10;1.90;;;17.50;99.90;;;;;;5038139;28;20195;-75
2023/07/22 00:21:05;;;;;;;1.77;1.67;;;17.50;99.90;;;;;;5037632;28;20897;-76
2023/07/22 00:23:32;;;;;;;1.88;1.77;;;17.40;99.90;;;;;;5036209;28;20877;-73
2023/07/22 00:25:59;;;;;;;2.00;1.80;;;17.40;99.90;;;;;;5035131;28;20250;-75
2023/07/22 00:28:26;;;;;;;1.58;1.48;;;17.40;99.90;;;;;;5036396;28;20303;-74
2023/07/22 00:30:54;;;;;;;1.60;1.50;;;17.40;99.90;;;;;;5035004;28;20794;-73
2023/07/22 00:33:21;;;;;;;1.70;1.60;;;17.30;99.90;;;;;;5035163;28;20743;-75
2023/07/22 00:35:50;;;;;;;1.80;1.70;;;17.20;99.90;;;;;;5033960;28;20211;-75
2023/07/22 00:38:17;;;;;;;1.65;1.55;;;17.20;99.90;;;;;;5039979;28;20207;-75
2023/07/22 00:40:44;;;;;;;2.13;1.60;;;17.20;99.90;;;;;;5035368;28;21772;-74
2023/07/22 00:43:11;;;;;;;1.80;1.70;;;17.20;99.90;;;;;;5030401;28;20229;-75
2023/07/22 00:45:38;;;;;;;1.88;1.77;;;17.10;99.90;;;;;;5036872;28;20212;-75
2023/07/22 00:48:09;;;;;;;1.40;1.30;;;17.10;99.90;;;;;;5035498;28;20290;-75
2023/07/22 00:50:37;;;;;;;1.63;1.52;;;17.10;99.90;;;;;;5035113;28;20223;-75
2023/07/22 00:53:04;;;;;;;1.90;1.80;;;17.10;99.90;;;;;;5036940;28;20207;-75
2023/07/22 00:55:34;;;;;;;1.60;1.50;;;17.10;99.90;;;;;;5036056;28;20223;-75
2023/07/22 00:58:01;;;;;;;1.70;1.60;;;17.10;99.90;;;;;;5037409;28;20234;-75
2023/07/22 01:00:28;;;;;;;1.85;1.75;;;17.10;99.90;;;;;;5033001;28;20807;-74
2023/07/22 01:02:55;;;;;;;1.80;1.70;;;17.10;99.90;;;;;;5035575;28;20211;-76
2023/07/22 01:05:24;;;;;;;1.60;1.50;;;17.00;99.90;;;;;;5040298;28;20761;-74
2023/07/22 01:07:52;;;;;;;1.58;1.48;;;17.00;99.90;;;;;;5043407;28;20203;-75
2023/07/22 01:10:19;;;;;;;1.48;1.38;;;17.00;99.90;;;;;;5037884;28;20265;-74
2023/07/22 01:12:46;;;;;;;1.70;1.60;;;17.00;99.90;;;;;;5041799;28;20290;-76
2023/07/22 01:15:13;;;;;;;1.75;1.65;;;17.00;99.90;;;;;;5040802;28;20245;-76
2023/07/22 01:17:41;;;;;;;1.80;1.70;;;17.00;99.90;;;;;;5045903;28;20226;-75
2023/07/22 01:20:09;;;;;;;2.38;1.98;;;17.00;99.90;;;;;;5040968;28;20277;-74
2023/07/22 01:22:39;;;;;;;1.48;1.38;;;16.90;99.90;;;;;;5042240;28;20207;-76
2023/07/22 01:25:09;;;;;;;1.70;1.60;;;16.90;99.90;;;;;;5040410;28;20250;-75
2023/07/22 01:27:36;;;;;;;1.67;1.58;;;16.90;99.90;;;;;;5043289;28;20227;-75
2023/07/22 01:30:03;;;;;;;1.58;1.48;;;16.90;99.90;;;;;;5042088;28;20585;-75
2023/07/22 01:32:31;;;;;;;1.75;1.65;;;16.90;99.90;;;;;;5039208;28;20286;-73
2023/07/22 01:34:58;;;;;;;1.90;1.80;;;16.90;99.90;;;;;;5042559;28;20210;-75
2023/07/22 01:37:25;;;;;;;1.90;1.67;;;16.80;99.90;;;;;;5042925;28;20258;-75
2023/07/22 01:39:53;;;;;;;1.77;1.67;;;16.80;99.90;;;;;;5039019;28;20866;-74
2023/07/22 01:42:21;;;;;;;1.80;1.70;;;16.80;99.90;;;;;;5041632;28;20205;-73
2023/07/22 01:44:48;;;;;;;1.85;1.75;;;16.80;99.90;;;;;;5043467;28;20199;-74
2023/07/22 01:47:15;;;;;;;1.35;1.27;;;16.80;99.90;;;;;;5039081;28;20725;-73
2023/07/22 01:49:42;;;;;;;1.70;1.60;;;16.80;99.90;;;;;;5040979;28;20301;-77
2023/07/22 01:52:09;;;;;;;1.80;1.70;;;16.80;99.90;;;;;;5043741;28;20223;-74
2023/07/22 01:54:36;;;;;;;1.83;1.73;;;16.80;99.90;;;;;;5041115;28;20727;-75
2023/07/22 01:57:03;;;;;;;1.60;1.50;;;16.80;99.90;;;;;;5040718;28;20284;-74
2023/07/22 01:59:32;;;;;;;1.60;1.50;;;16.80;99.90;;;;;;5041082;28;20262;-74
2023/07/22 02:01:59;;;;;;;1.60;1.50;;;16.80;99.90;;;;;;5039570;28;20199;-75
2023/07/22 02:04:26;;;;;;;1.75;1.65;;;16.80;99.90;;;;;;5037796;28;20207;-76
2023/07/22 02:06:53;;;;;;;1.70;1.60;;;16.70;99.90;;;;;;5037672;28;20225;-75
2023/07/22 02:09:20;;;;;;;1.40;1.30;;;16.70;99.90;;;;;;5039740;28;20593;-75
2023/07/22 02:11:48;;;;;;;1.77;1.67;;;16.70;99.90;;;;;;5040516;28;20258;-74
2023/07/22 02:14:15;;;;;;;1.95;1.85;;;16.60;99.90;;;;;;5034854;28;20801;-75
2023/07/22 02:16:43;;;;;;;1.58;1.48;;;16.60;99.90;;;;;;5038752;28;20303;-77
2023/07/22 02:19:10;;;;;;;2.35;1.70;;;16.60;99.90;;;;;;5036469;28;20318;-77
2023/07/22 02:21:37;;;;;;;1.58;1.48;;;16.60;99.90;;;;;;5040920;28;20195;-75
2023/07/22 02:24:04;;;;;;;1.65;1.55;;;16.60;99.90;;;;;;5039633;28;20250;-75
2023/07/22 02:26:31;;;;;;;1.60;1.50;;;16.60;99.90;;;;;;5041633;28;20246;-74
2023/07/22 02:28:58;;;;;;;1.67;1.58;;;16.60;99.90;;;;;;5038948;28;20724;-75
2023/07/22 02:31:25;;;;;;;1.80;1.70;;;16.60;99.90;;;;;;5036683;28;20234;-75
2023/07/22 02:33:54;;;;;;;2.15;1.70;;;16.60;99.90;;;;;;5034052;28;20212;-73
2023/07/22 02:36:21;;;;;;;1.95;1.75;;;16.60;99.90;;;;;;5040467;28;20287;-76
2023/07/22 02:38:48;;;;;;;1.75;1.65;;;16.60;99.90;;;;;;5042841;28;20257;-76
2023/07/22 02:41:15;;;;;;;1.60;1.50;;;16.50;99.90;;;;;;5046438;28;20224;-76
2023/07/22 02:43:42;;;;;;;1.75;1.65;;;16.50;99.90;;;;;;5040626;28;20199;-76
2023/07/22 02:46:08;;;;;;;1.75;1.65;;;16.50;99.90;;;;;;5043914;28;20294;-75
2023/07/22 02:48:36;;;;;;;1.60;1.50;;;16.50;99.90;;;;;;5044352;28;20664;-76
2023/07/22 02:51:06;;;;;;;1.80;1.70;;;16.50;99.90;;;;;;5042759;28;20230;-77
2023/07/22 02:53:33;;;;;;;1.98;1.80;;;16.50;99.90;;;;;;5037176;28;20800;-75
2023/07/22 02:56:00;;;;;;;1.67;1.58;;;16.50;99.90;;;;;;5039439;28;20229;-76
2023/07/22 02:58:27;;;;;;;1.50;1.40;;;16.50;99.90;;;;;;5041653;28;20826;-79
2023/07/22 03:00:54;;;;;;;1.60;1.50;;;16.50;99.90;;;;;;5040183;28;20226;-76
2023/07/22 03:03:21;;;;;;;1.50;1.40;;;16.50;99.90;;;;;;5039982;28;20246;-76
2023/07/22 03:05:48;;;;;;;2.13;1.75;;;16.50;99.90;;;;;;5042227;28;20269;-76
2023/07/22 03:08:18;;;;;;;1.98;1.80;;;16.50;99.90;;;;;;5039545;28;20207;-76
2023/07/22 03:10:48;;;;;;;1.73;1.40;;;16.50;99.90;;;;;;5042249;28;20280;-75
2023/07/22 03:13:15;;;;;;;1.75;1.65;;;16.50;99.90;;;;;;5038898;28;20210;-75
2023/07/22 03:15:42;;;;;;;1.80;1.70;;;16.40;99.90;;;;;;5040549;28;20238;-75
2023/07/22 03:18:09;;;;;;;1.90;1.80;;;16.40;99.90;;;;;;5046502;28;20249;-77
2023/07/22 03:20:37;;;;;;;1.60;1.50;;;16.40;99.90;;;;;;5042149;28;20218;-75
2023/07/22 03:23:04;;;;;;;1.60;1.50;;;16.40;99.90;;;;;;5041264;28;20214;-76
2023/07/22 03:25:33;;;;;;;2.00;1.90;;;16.40;99.90;;;;;;5043571;28;20254;-78
2023/07/22 03:28:03;;;;;;;1.50;1.40;;;16.50;99.90;;;;;;5039249;28;20203;-73
2023/07/22 03:30:30;;;;;;;1.55;1.45;;;16.40;99.90;;;;;;5040726;28;20234;-76
2023/07/22 03:32:57;;;;;;;1.75;1.65;;;16.40;99.90;;;;;;5036402;28;20206;-74
2023/07/22 03:35:24;;;;;;;2.35;1.67;;;16.40;99.90;;;;;;5041180;28;20206;-75
2023/07/22 03:37:51;;;;;;;1.75;1.50;;;16.40;99.90;;;;;;5041474;28;20216;-75
2023/07/22 03:40:20;;;;;;;1.60;1.50;;;16.40;99.90;;;;;;5042166;28;20251;-76
2023/07/22 03:42:48;;;;;;;1.75;1.65;;;16.40;99.90;;;;;;5041470;28;20280;-75
2023/07/22 03:45:15;;;;;;;1.60;1.50;;;16.40;99.90;;;;;;5045216;28;20211;-77
2023/07/22 03:47:44;;;;;;;1.98;1.88;;;16.40;99.90;;;;;;5042535;28;20625;-75
2023/07/22 03:50:11;;;;;;;2.03;1.85;;;16.40;99.90;;;;;;5042627;28;20258;-76
2023/07/22 03:52:38;;;;;;;1.67;1.58;;;16.30;99.90;;;;;;5041210;28;20231;-77
2023/07/22 03:55:06;;;;;;;1.70;1.60;;;16.30;99.90;;;;;;5044859;28;20238;-77
2023/07/22 03:57:33;;;;;;;1.70;1.60;;;16.40;99.90;;;;;;5045562;28;20250;-74
2023/07/22 04:00:02;;;;;;;1.85;1.75;;;16.30;99.90;;;;;;5045236;28;20219;-76
2023/07/22 04:02:30;;;;;;;1.80;1.70;;;16.40;99.90;;;;;;5043162;28;20238;-76
2023/07/22 04:04:57;;;;;;;1.90;1.80;;;16.30;99.90;;;;;;5046411;28;20235;-77
2023/07/22 04:07:24;;;;;;;2.00;1.85;;;16.40;99.90;;;;;;5044233;28;20250;-77
2023/07/22 04:09:51;;;;;;;1.70;1.60;;;16.40;99.90;;;;;;5043094;28;20269;-79
2023/07/22 04:12:18;;;;;;;2.20;1.52;;;16.40;99.90;;;;;;5042100;28;20249;-75
2023/07/22 04:14:45;;;;;;;1.85;1.75;;;16.40;99.90;;;;;;5039717;28;20694;-77
2023/07/22 04:17:15;;;;;;;1.75;1.52;;;16.50;99.90;;;;;;5039194;28;20247;-74
2023/07/22 04:19:42;;;;;;;1.75;1.65;;;16.50;99.90;;;;;;5040575;28;20301;-77
2023/07/22 04:22:10;;;;;;;1.85;1.75;;;16.50;99.90;;;;;;5039196;28;20619;-76
2023/07/22 04:24:37;;;;;;;1.70;1.60;;;16.50;99.90;;;;;;5038577;28;20222;-75
2023/07/22 04:27:04;;;;;;;1.90;1.80;;;16.50;99.90;;;;;;5040074;28;20239;-73
2023/07/22 04:29:32;;;;;;;1.90;1.80;;;16.40;99.90;;;;;;5044144;28;20223;-74
2023/07/22 04:32:00;;;;;;;2.00;1.90;;;16.50;99.90;;;;;;5040071;28;20225;-74
2023/07/22 04:34:31;;;;;;;1.80;1.70;;;16.50;99.90;;;;;;5040339;28;20314;-76
2023/07/22 04:36:58;;;;;;;1.83;1.73;;;16.50;99.90;;;;;;5040850;28;20200;-75
2023/07/22 04:39:25;;;;;;;1.90;1.80;;;16.60;99.90;;;;;;5038149;28;20214;-75
2023/07/22 04:41:52;;;;;;;1.85;1.75;;;16.70;99.90;;;;;;5045354;28;20203;-75
2023/07/22 04:44:20;;;;;;;2.28;2.08;;;16.80;99.90;;;;;;5037537;28;20199;-75
2023/07/22 04:46:47;;;;;;;1.52;1.42;;;16.90;99.90;;;;;;5043976;28;20199;-76
2023/07/22 04:49:17;;;;;;;1.80;1.70;;;17.10;99.90;;;;;;5039423;28;20274;-76
2023/07/22 04:51:45;;;;;;;1.95;1.85;;;17.20;99.90;;;;;;5039528;28;20661;-73
2023/07/22 04:54:12;;;;;;;2.20;2.05;;;17.30;99.90;;;;;;5041004;28;20207;-76
2023/07/22 04:56:39;;;;;;;2.05;1.95;;;17.30;99.90;;;;;;5042307;28;20778;-75
2023/07/22 04:59:06;;;;;;;1.73;1.63;;;17.30;99.90;;;;;;5040718;28;20313;-75
2023/07/22 05:01:33;;;;;;;2.03;1.92;;;17.30;99.90;;;;;;5041235;28;20214;-75
2023/07/22 05:04:01;;;;;;;1.90;1.70;;;17.30;99.90;;;;;;5041013;28;20290;-73
2023/07/22 05:06:29;;;;;;;2.38;1.80;;;17.30;99.90;;;;;;5043391;28;20879;-74
2023/07/22 05:08:57;;;;;;;2.30;1.88;;;17.30;99.90;;;;;;5040574;28;20249;-74
2023/07/22 05:11:24;;;;;;;2.00;1.90;;;17.30;99.90;;;;;;5045163;28;20294;-74
2023/07/22 05:13:51;;;;;;;1.77;1.67;;;17.40;99.90;;;;;;5041489;28;20207;-76
2023/07/22 05:16:18;;;;;;;1.67;1.58;;;17.40;99.90;;;;;;5039340;28;20262;-75
2023/07/22 05:18:44;;;;;;;4.15;1.70;;;17.50;99.90;;;;;;5037718;28;20257;-73
2023/07/22 05:21:11;;;;;;;1.70;1.60;;;17.60;99.90;;;;;;5041538;28;20203;-77
2023/07/22 05:23:38;;;;;;;1.90;1.80;;;17.60;99.90;;;;;;5034130;28;20281;-75
2023/07/22 05:26:07;;;;;;;2.20;2.10;;;17.70;99.90;;;;;;5037157;28;20207;-76
2023/07/22 05:28:34;;;;;;;2.00;1.85;;;17.80;99.90;;;;;;5036916;28;20528;-75
2023/07/22 05:31:01;;;;;;;2.10;2.00;;;17.80;99.90;;;;;;5039662;28;20242;-74
2023/07/22 05:33:28;;;;;;;1.95;1.85;;;17.80;99.90;;;;;;5038660;28;20570;-76
2023/07/22 05:35:54;;;;;;;3.28;2.05;;;17.90;99.90;;;;;;5044126;28;20231;-75
2023/07/22 05:38:21;;;;;;;3.60;2.78;;;18.10;99.90;;;;;;5037024;28;20305;-74
2023/07/22 05:40:48;;;;;;;2.88;2.58;;;18.50;99.90;;;;;;5038833;28;20219;-75
2023/07/22 05:43:17;;;;;;;3.08;2.40;;;18.70;99.90;;;;;;5038321;28;20278;-75
2023/07/22 05:45:43;;;;;;;2.50;2.30;;;18.70;99.90;;;;;;5034811;28;20250;-74
2023/07/22 05:48:10;;;;;;;2.85;2.63;;;18.60;99.90;;;;;;5037006;28;20662;-75
2023/07/22 05:50:37;;;;;;;1.83;1.73;;;18.50;99.90;;;;;;5042186;28;20214;-76
2023/07/22 05:53:04;;;;;;;2.25;2.05;;;18.40;99.90;;;;;;5038772;28;20720;-77
2023/07/22 05:55:31;;;;;;;2.47;2.13;;;18.40;99.90;;;;;;5041695;28;20629;-75
2023/07/22 05:57:59;;;;;;;2.70;2.47;;;18.50;99.90;;;;;;5039702;28;20704;-75
2023/07/22 06:00:28;;;;;;;2.25;2.08;;;18.50;99.90;;;;;;5040392;28;20227;-76
2023/07/22 06:02:55;;;;;;;2.97;2.08;;;18.50;99.90;;;;;;5041502;28;20306;-75
2023/07/22 06:05:22;;;;;;;2.30;2.10;;;18.60;99.90;;;;;;5044029;28;20653;-75
2023/07/22 06:07:48;;;;;;;2.50;2.30;;;18.70;99.90;;;;;;5038877;28;20230;-75
2023/07/22 06:10:15;;;;;;;2.17;2.08;;;19.00;99.90;;;;;;5044831;28;20809;-74
2023/07/22 06:12:42;;;;;;;2.45;2.20;;;19.30;99.90;;;;;;5042428;28;20208;-75
2023/07/22 06:15:10;;;;;;;2.30;2.10;;;19.50;99.90;;;;;;5039057;28;20289;-75
2023/07/22 06:17:38;;;;;;;2.38;1.80;;;19.70;99.90;;;;;;5039553;28;20252;-75
2023/07/22 06:20:06;;;;;;;3.40;2.20;;;19.70;99.90;;;;;;5044948;28;20222;-76
2023/07/22 06:22:33;;;;;;;2.63;2.42;;;19.60;99.90;;;;;;5038861;28;20211;-74
2023/07/22 06:25:00;;;;;;;4.88;2.38;;;19.80;99.90;;;;;;5042924;28;20293;-75
2023/07/22 06:27:27;;;;;;;2.33;2.10;;;19.80;99.90;;;;;;5044480;28;20820;-76
2023/07/22 06:29:55;;;;;;;2.33;2.13;;;19.70;99.90;;;;;;5037607;28;20242;-74
2023/07/22 06:32:22;;;;;;;1.70;1.60;;;19.70;99.90;;;;;;5040574;28;20277;-75
2023/07/22 06:34:50;;;;;;;2.13;2.03;;;19.50;99.90;;;;;;5044131;28;20199;-76
2023/07/22 06:37:17;;;;;;;2.33;2.13;;;19.40;99.90;;;;;;5039458;28;20239;-77
2023/07/22 06:39:44;;;;;;;3.05;2.28;;;19.30;99.90;;;;;;5041176;28;20215;-75
2023/07/22 06:42:11;;;;;;;1.90;1.80;;;19.30;99.90;;;;;;5042601;28;20199;-75
2023/07/22 06:44:38;;;;;;;2.22;2.05;;;19.30;99.90;;;;;;5040772;28;20291;-75
2023/07/22 06:47:05;;;;;;;2.38;2.17;;;19.20;99.90;;;;;;5038617;28;20230;-75
2023/07/22 06:49:32;;;;;;;4.45;3.20;;;19.30;99.90;;;;;;5039984;28;20245;-75
2023/07/22 06:52:01;;;;;;;3.22;2.25;;;19.40;99.90;;;;;;5040675;28;20846;-76
2023/07/22 06:54:28;;;;;;;2.90;2.13;;;19.60;99.90;;;;;;5040720;28;20737;-77
2023/07/22 06:56:55;;;;;;;2.50;2.28;;;19.70;99.90;;;;;;5040001;28;20869;-76
2023/07/22 06:59:22;;;;;;;2.20;2.00;;;19.80;99.90;;;;;;5036356;28;20219;-76
2023/07/22 07:01:49;;;;;;;2.53;2.28;;;19.90;99.90;;;;;;5038458;28;20207;-75
2023/07/22 07:04:16;;;;;;;2.47;2.28;;;20.00;99.90;;;;;;5035244;28;20203;-76
2023/07/22 07:06:43;;;;;;;3.35;2.28;;;20.10;99.90;;;;;;5035989;28;20203;-76
2023/07/22 07:09:11;;;;;;;2.42;2.22;;;20.50;99.90;;;;;;5032866;28;20215;-75
2023/07/22 07:11:38;;;;;;;2.47;2.25;;;20.70;99.90;;;;;;5035027;28;20294;-75
2023/07/22 07:14:05;;;;;;;2.33;2.13;;;20.80;99.90;;;;;;5032659;28;20285;-76
2023/07/22 07:16:33;;;;;;;3.47;2.10;;;21.10;99.90;;;;;;5034075;28;20196;-75
2023/07/22 07:19:01;;;;;;;2.70;2.35;;;21.50;99.90;;;;;;5033776;28;20251;-75
2023/07/22 07:21:28;;;;;;;2.40;2.20;;;21.60;99.90;;;;;;5034588;28;20200;-75
2023/07/22 07:23:56;;;;;;;2.63;2.42;;;21.60;99.90;;;;;;5032423;28;20282;-76
2023/07/22 07:26:24;;;;;;;3.30;2.45;;;21.40;99.90;;;;;;5033853;28;20196;-75
2023/07/22 07:28:51;;;;;;;2.53;2.30;;;21.40;99.90;;;;;;5030664;28;20200;-76
2023/07/22 07:31:18;;;;;;;3.17;2.30;;;21.50;99.90;;;;;;5030371;28;20226;-75
2023/07/22 07:33:45;;;;;;;3.22;2.40;;;21.70;99.90;;;;;;5032424;28;20289;-77
2023/07/22 07:36:13;;;;;;;3.35;2.40;;;21.70;99.90;;;;;;5033322;28;20204;-75
2023/07/22 07:38:39;;;;;;;3.67;2.50;;;21.70;99.90;;;;;;5030262;28;20217;-75
2023/07/22 07:41:08;;;;;;;2.80;2.22;;;21.80;99.90;;;;;;5032951;28;20987;-76
2023/07/22 07:43:37;;;;;;;2.28;2.10;;;21.80;99.90;;;;;;5031493;28;21002;-76
2023/07/22 07:46:14;;;;;;;3.03;2.22;;;21.90;99.90;;;;;;5030119;28;20297;-76
2023/07/22 07:48:41;;;;;;;3.42;2.13;;;22.00;99.90;;;;;;5029072;28;20899;-74
2023/07/22 07:51:08;;;;;;;2.80;2.05;;;22.30;99.90;;;;;;5030489;28;20819;-74
2023/07/22 07:53:35;;;;;;;4.70;2.30;;;22.40;99.90;;;;;;5034603;28;20290;-76
2023/07/22 07:56:02;;;;;;;2.80;2.60;;;22.40;99.90;;;;;;5034863;28;20277;-74
2023/07/22 07:58:29;;;;;;;2.92;2.30;;;22.40;99.90;;;;;;5034028;28;20311;-76
2023/07/22 08:00:57;;;;;;;3.40;2.40;;;22.20;99.90;;;;;;5028505;28;20651;-76
2023/07/22 08:03:24;;;;;;;2.88;2.50;;;22.10;99.90;;;;;;5027583;28;20719;-75
2023/07/22 08:05:51;;;;;;;2.33;2.10;;;22.20;99.90;;;;;;5027971;28;20654;-76
2023/07/22 08:08:18;;;;;;;2.45;2.13;;;22.20;99.90;;;;;;5029005;28;20214;-76
2023/07/22 08:10:45;;;;;;;3.40;2.70;;;22.30;99.90;;;;;;5028628;28;20214;-76
2023/07/22 08:13:12;;;;;;;3.22;2.63;;;22.30;99.90;;;;;;5033021;28;20665;-77
2023/07/22 08:15:39;;;;;;;3.95;2.50;;;22.30;99.90;;;;;;5034556;28;20195;-75
2023/07/22 08:18:08;;;;;;;3.92;2.95;;;22.30;99.90;;;;;;5034293;28;20289;-76
2023/07/22 08:20:35;;;;;;;2.42;2.22;;;22.40;99.90;;;;;;5034237;28;20833;-76
2023/07/22 08:23:01;;;;;;;3.45;2.55;;;22.50;99.90;;;;;;5035808;28;20222;-75
2023/07/22 08:25:28;;;;;;;2.60;2.40;;;22.70;99.90;;;;;;5029156;28;20293;-74
2023/07/22 08:27:55;;;;;;;3.15;2.70;;;22.80;99.90;;;;;;5035569;28;20230;-74
2023/07/22 08:30:22;;;;;;;4.28;2.72;;;23.00;99.90;;;;;;5030235;28;20811;-73
2023/07/22 08:32:49;;;;;;;2.47;2.28;;;23.40;99.90;;;;;;5028990;28;20210;-75
2023/07/22 08:35:18;;;;;;;2.65;2.30;;;23.70;99.90;;;;;;5031786;28;20289;-75
2023/07/22 08:37:46;;;;;;;2.70;2.50;;;23.80;99.90;;;;;;5035317;28;20209;-76
2023/07/22 08:40:13;;;;;;;3.10;2.22;;;23.70;99.90;;;;;;5035770;28;20238;-75
2023/07/22 08:42:42;;;;;;;2.80;2.40;;;23.80;99.90;;;;;;5035123;28;20235;-76
2023/07/22 08:45:11;;;;;;;2.95;2.65;;;24.10;99.90;;;;;;5027833;28;20295;-74
2023/07/22 08:47:44;;;;;;;2.83;2.50;;;24.10;99.90;;;;;;5029959;28;20210;-75
2023/07/22 08:50:12;;;;;;;3.95;2.70;;;24.10;99.90;;;;;;5032193;28;20317;-77
2023/07/22 08:52:40;;;;;;;3.00;2.35;;;23.70;99.90;;;;;;5031273;28;20294;-74
2023/07/22 08:55:10;;;;;;;2.35;2.15;;;23.70;99.90;;;;;;5029310;28;20725;-75
2023/07/22 08:57:39;;;;;;;3.13;2.80;;;23.80;99.90;;;;;;5029988;28;20203;-74
2023/07/22 09:00:09;;;;;;;2.65;2.28;;;24.00;99.90;;;;;;5026594;28;20215;-75
2023/07/22 09:02:37;;;;;;;2.38;2.17;;;24.00;99.90;;;;;;5030845;28;20205;-76
2023/07/22 09:05:03;;;;;;;2.75;2.40;;;24.30;99.90;;;;;;5030369;28;20693;-76
2023/07/22 09:07:31;;;;;;;3.28;2.35;;;24.50;99.90;;;;;;5027684;28;20598;-75
2023/07/22 09:10:01;;;;;;;3.00;2.35;;;24.50;99.90;;;;;;5033256;28;20224;-76
2023/07/22 09:12:29;;;;;;;2.35;2.15;;;24.50;99.90;;;;;;5033623;28;20211;-74
2023/07/22 09:14:57;;;;;;;3.10;2.45;;;24.60;99.90;;;;;;5026845;28;20302;-76
2023/07/22 09:17:24;;;;;;;2.72;2.45;;;24.70;99.90;;;;;;5030825;28;20221;-75
2023/07/22 09:19:54;;;;;;;2.67;2.47;;;24.70;99.90;;;;;;5031948;28;20265;-74
2023/07/22 09:22:27;;;;;;;2.50;2.30;;;24.70;99.90;;;;;;5031828;28;20195;-74
2023/07/22 09:24:54;;;;;;;4.75;2.60;;;24.80;99.90;;;;;;5031027;28;20911;-74
2023/07/22 09:27:35;;;;;;;2.60;2.40;;;24.90;99.90;;;;;;5034490;28;20253;-73
2023/07/22 09:30:02;;;;;;;2.70;2.25;;;25.10;99.90;;;;;;5036386;28;20219;-75
2023/07/22 09:32:37;;;;;;;2.80;2.60;;;25.30;99.90;;;;;;5030183;28;20232;-75
2023/07/22 09:35:07;;;;;;;4.72;2.63;;;25.30;99.90;;;;;;5032575;28;20211;-75
2023/07/22 09:37:38;;;;;;;2.67;2.47;;;25.30;99.90;;;;;;5032402;28;20631;-75
2023/07/22 09:40:15;;;;;;;2.97;2.50;;;25.50;99.90;;;;;;5034440;28;20233;-75
2023/07/22 09:42:46;;;;;;;2.60;2.40;;;25.50;99.90;;;;;;5032291;28;23537;-74
2023/07/22 09:45:13;;;;;;;3.53;2.75;;;25.40;99.90;;;;;;5032775;28;20227;-74
2023/07/22 09:47:44;;;;;;;2.95;2.60;;;25.40;99.90;;;;;;5035286;28;20207;-75
2023/07/22 09:50:22;;;;;;;2.40;2.20;;;25.40;99.90;;;;;;5034093;28;20310;-75
2023/07/22 09:52:50;;;;;;;3.22;2.55;;;25.70;99.90;;;;;;5031235;28;20298;-75
2023/07/22 09:55:19;;;;;;;2.60;2.40;;;26.00;99.90;;;;;;5036776;28;20230;-75
2023/07/22 09:57:50;;;;;;;2.63;2.42;;;26.20;99.90;;;;;;5027706;28;20257;-75
2023/07/22 10:00:19;;;;;;;2.55;2.35;;;26.30;99.90;;;;;;5030905;28;20306;-76
2023/07/22 10:02:49;;;;;;;3.63;2.35;;;26.40;99.90;;;;;;5033204;28;20199;-76
2023/07/22 10:05:18;;;;;;;2.63;2.40;;;26.20;99.90;;;;;;5037098;28;20231;-75
2023/07/22 10:07:47;;;;;;;2.45;2.22;;;26.00;99.90;;;;;;5029607;28;20890;-75
2023/07/22 10:10:16;;;;;;;2.97;2.35;;;26.00;99.90;;;;;;5029259;28;20979;-76
2023/07/22 10:12:43;;;;;;;2.75;2.42;;;26.20;99.90;;;;;;5033076;28;20202;-76
2023/07/22 10:15:13;;;;;;;2.13;1.92;;;26.10;99.90;;;;;;5031592;28;20203;-75
2023/07/22 10:17:41;;;;;;;2.63;2.42;;;26.10;99.90;;;;;;5033340;28;20345;-77
2023/07/22 10:20:10;;;;;;;2.80;2.50;;;26.20;99.90;;;;;;5034898;28;20231;-75
2023/07/22 10:22:38;;;;;;;2.70;2.35;;;26.30;99.90;;;;;;5033022;28;20286;-76
2023/07/22 10:25:08;;;;;;;2.97;2.45;;;26.50;99.90;;;;;;5035143;28;20261;-74
2023/07/22 10:27:36;;;;;;;2.45;2.25;;;26.50;99.90;;;;;;5034089;28;20943;-75
2023/07/22 10:30:03;;;;;;;2.42;2.22;;;26.60;99.90;;;;;;5033202;28;20223;-77
2023/07/22 10:32:37;;;;;;;2.95;2.40;;;26.90;99.90;;;;;;5033633;28;20286;-76
2023/07/22 10:35:05;;;;;;;2.70;2.50;;;26.80;99.90;;;;;;5032661;28;20243;-77
2023/07/22 10:37:33;;;;;;;2.50;2.30;;;26.80;99.90;;;;;;5032852;28;20326;-76
2023/07/22 10:40:04;;;;;;;4.28;2.83;;;26.90;99.90;;;;;;5032084;28;20320;-75
2023/07/22 10:42:33;;;;;;;2.40;2.20;;;26.90;99.90;;;;;;5032570;28;20204;-75
2023/07/22 10:45:02;;;;;;;2.60;2.40;;;27.00;99.90;;;;;;5037237;28;20273;-75
2023/07/22 10:47:37;;;;;;;2.30;2.10;;;26.90;99.90;;;;;;5027774;28;20607;-77
2023/07/22 10:50:09;;;;;;;2.85;2.55;;;26.90;99.90;;;;;;5027301;28;20709;-75
2023/07/22 10:52:43;;;;;;;2.55;2.35;;;26.90;99.90;;;;;;5030198;28;20204;-76
2023/07/22 10:55:20;;;;;;;2.40;2.20;;;27.10;99.90;;;;;;5032287;28;20709;-76
2023/07/22 10:57:52;;;;;;;2.70;2.50;;;27.10;99.90;;;;;;5030638;28;20297;-75
2023/07/22 11:00:21;;;;;;;3.50;2.60;;;27.20;99.90;;;;;;5029917;28;20222;-75
2023/07/22 11:03:10;;;;;;;3.17;2.38;;;27.40;99.90;;;;;;5034817;28;20673;-75
2023/07/22 11:05:52;;;;;;;2.60;2.40;;;27.30;99.90;;;;;;5036097;28;20206;-74
2023/07/22 11:08:36;;;;;;;3.28;2.50;;;27.30;99.90;;;;;;5034618;28;20252;-76
2023/07/22 11:11:04;;;;;;;2.58;2.38;;;27.60;99.90;;;;;;5036554;28;20313;-76
2023/07/22 11:13:38;;;;;;;2.50;2.30;;;27.80;99.90;;;;;;5041891;28;20477;-76
2023/07/22 11:16:05;;;;;;;3.20;2.55;;;27.70;99.90;;;;;;5033881;28;21025;-76
2023/07/22 11:18:41;;;;;;;2.60;2.40;;;27.30;99.90;;;;;;5041811;28;20245;-78
2023/07/22 11:21:10;;;;;;;2.97;2.42;;;27.40;99.90;;;;;;5036759;28;20308;-76
2023/07/22 11:23:37;;;;;;;2.33;2.13;;;27.10;99.90;;;;;;5031624;28;20677;-78
2023/07/22 11:26:05;;;;;;;2.15;1.95;;;26.90;99.90;;;;;;5034759;28;20277;-76
2023/07/22 11:28:32;;;;;;;2.40;2.20;;;26.80;99.90;;;;;;5033698;28;20210;-75
2023/07/22 11:31:00;;;;;;;2.58;2.38;;;27.00;99.90;;;;;;5031940;28;20777;-76
2023/07/22 11:33:38;;;;;;;2.25;2.03;;;27.50;99.90;;;;;;5031576;28;20639;-77
2023/07/22 11:36:06;;;;;;;2.38;2.17;;;27.90;99.90;;;;;;5028649;28;20870;-76
2023/07/22 11:38:34;;;;;;;2.83;2.05;;;28.00;99.90;;;;;;5031800;28;20206;-78
2023/07/22 11:41:01;;;;;;;2.55;2.35;;;28.00;99.90;;;;;;5032138;28;20238;-75
2023/07/22 11:43:28;;;;;;;2.35;2.15;;;28.00;99.90;;;;;;5032173;28;20226;-76
2023/07/22 11:45:55;;;;;;;2.40;2.20;;;28.20;99.90;;;;;;5026073;28;20314;-76
2023/07/22 11:48:22;;;;;;;2.17;2.00;;;28.30;99.90;;;;;;5028579;28;20282;-76
2023/07/22 11:50:49;;;;;;;2.60;2.40;;;28.10;99.90;;;;;;5031498;28;20902;-76
2023/07/22 11:53:18;;;;;;;2.30;2.10;;;27.90;99.90;;;;;;5031841;28;20302;-76
2023/07/22 11:55:45;;;;;;;2.40;2.20;;;27.50;99.90;;;;;;5032462;28;20274;-76
2023/07/22 11:58:12;;;;;;;2.50;2.30;;;27.40;99.90;;;;;;5029803;28;20227;-77
2023/07/22 12:00:44;;;;;;;2.30;2.10;;;27.40;99.90;;;;;;5032695;28;20230;-76
2023/07/22 12:03:11;;;;;;;2.20;2.00;;;27.20;99.90;;;;;;5030470;28;20321;-77
2023/07/22 12:05:38;;;;;;;2.65;2.35;;;27.00;99.90;;;;;;5029635;28;20198;-76
2023/07/22 12:08:06;;;;;;;2.33;2.13;;;26.70;99.90;;;;;;5029695;28;20716;-77
2023/07/22 12:10:35;;;;;;;2.05;1.85;;;26.60;99.90;;;;;;5027439;28;20249;-76
2023/07/22 12:13:02;;;;;;;2.03;1.90;;;26.50;99.90;;;;;;5031327;28;21000;-75
2023/07/22 12:15:29;;;;;;;2.70;2.50;;;26.40;99.90;;;;;;5031282;28;20207;-76
2023/07/22 12:17:58;;;;;;;2.60;2.40;;;26.30;99.90;;;;;;5027092;28;20199;-76
2023/07/22 12:20:26;;;;;;;2.83;2.05;;;26.20;99.90;;;;;;5034738;28;20328;-76
2023/07/22 12:22:53;;;;;;;2.40;2.20;;;26.00;99.90;;;;;;5028050;28;20200;-76
2023/07/22 12:25:20;;;;;;;2.10;2.00;;;26.10;99.90;;;;;;5031195;28;20207;-76
2023/07/22 12:27:49;;;;;;;1.80;1.70;;;26.20;99.90;;;;;;5030206;28;20231;-76
2023/07/22 12:30:16;;;;;;;3.17;2.38;;;26.40;99.90;;;;;;5034985;28;20226;-76
2023/07/22 12:32:43;;;;;;;2.03;1.92;;;26.70;99.90;;;;;;5032172;28;20211;-75
2023/07/22 12:35:10;;;;;;;3.45;2.20;;;27.00;99.90;;;;;;5027968;28;20234;-76
2023/07/22 12:37:38;;;;;;;2.42;2.22;;;27.40;99.90;;;;;;5031409;28;20206;-76
2023/07/22 12:40:08;;;;;;;2.47;2.28;;;27.70;99.90;;;;;;5032331;28;20262;-75
2023/07/22 12:42:35;;;;;;;3.53;2.45;;;28.00;99.90;;;;;;5031690;28;20210;-76
2023/07/22 12:45:03;;;;;;;2.20;2.00;;;28.30;99.90;;;;;;5027924;28;20203;-76
2023/07/22 12:47:31;;;;;;;2.70;2.30;;;28.40;99.90;;;;;;5030143;28;20270;-76
2023/07/22 12:49:57;;;;;;;3.00;2.70;;;28.40;99.90;;;;;;5033387;28;20226;-76
2023/07/22 12:52:24;;;;;;;2.35;2.15;;;28.00;99.90;;;;;;5032006;28;20280;-77